Time;durP1;ratioP1;P1;durP2;ratioP2;P2;SDS_P1;SDS_P2;PMS_P1;PMS_P2;Temp;Humidity;BMP_temperature;BMP_pressure;BME280_temperature;BME280_humidity;BME280_pressure;Samples;Min_cycle;Max_cycle;Signal;HPM_P1;HPM_P2
2021/09/07 00:00:14;;;;;;;;;;;;;;;16.42;79.10;102404.69;5052742;28;19947;-46
2021/09/07 00:02:41;;;;;;;;;;;;;;;16.41;79.24;102402.97;5052702;28;20315;-42
2021/09/07 00:05:09;;;;;;;;;;;;;;;16.38;79.60;102404.03;5052593;28;19925;-45
2021/09/07 00:07:36;;;;;;;;;;;;;;;16.41;79.43;102402.97;5051956;28;20019;-51
2021/09/07 00:10:07;;;;;;;;;;;;;;;16.35;79.73;102398.94;5051616;28;19967;-50
2021/09/07 00:12:34;;;;;;;;;;;;;;;16.31;80.00;102393.94;5050561;28;20071;-49
2021/09/07 00:15:01;;;;;;;;;;;;;;;16.33;79.90;102392.00;5052497;28;19925;-51
2021/09/07 00:17:28;;;;;;;;;;;;;;;16.34;79.65;102391.91;5051074;28;19939;-50
2021/09/07 00:19:55;;;;;;;;;;;;;;;16.28;79.97;102389.66;5052065;28;19929;-51
2021/09/07 00:22:21;;;;;;;;;;;;;;;16.30;79.80;102385.09;5052029;28;19978;-50
2021/09/07 00:24:48;;;;;;;;;;;;;;;16.32;80.10;102385.00;5051823;28;19982;-50
2021/09/07 00:27:14;;;;;;;;;;;;;;;16.29;80.08;102378.09;5050728;28;19925;-50
2021/09/07 00:29:41;;;;;;;;;;;;;;;16.31;80.02;102370.88;5051766;28;19925;-50
2021/09/07 00:32:08;;;;;;;;;;;;;;;16.29;80.27;102372.81;5052240;28;19924;-52
2021/09/07 00:34:35;;;;;;;;;;;;;;;16.32;80.36;102372.59;5051563;28;19987;-50
2021/09/07 00:37:02;;;;;;;;;;;;;;;16.36;80.64;102374.09;5052213;28;19925;-53
2021/09/07 00:39:28;;;;;;;;;;;;;;;16.31;81.06;102370.88;5050713;28;19925;-52
2021/09/07 00:41:55;;;;;;;;;;;;;;;16.33;81.17;102370.78;5050592;28;19929;-50
2021/09/07 00:44:25;;;;;;;;;;;;;;;16.35;81.12;102368.88;5051318;28;20394;-51
2021/09/07 00:46:59;;;;;;;;;;;;;;;16.34;81.01;102373.31;5034021;28;19932;-51
2021/09/07 00:49:26;;;;;;;;;;;;;;;16.33;81.01;102365.47;5051385;28;19935;-50
2021/09/07 00:51:53;;;;;;;;;;;;;;;16.30;81.67;102369.16;5066694;28;19994;-52
2021/09/07 00:54:32;;;;;;;;;;;;;;;16.30;81.73;102360.38;5050137;28;19925;-50
2021/09/07 00:57:01;;;;;;;;;;;;;;;16.25;81.99;102365.13;5048693;28;19929;-50
2021/09/07 00:59:28;;;;;;;;;;;;;;;16.30;81.79;102366.50;5051459;28;19970;-46
2021/09/07 01:01:54;;;;;;;;;;;;;;;16.37;81.25;102365.19;5050829;28;20280;-42
2021/09/07 01:04:21;;;;;;;;;;;;;;;16.36;81.46;102360.81;5051021;28;19998;-42
2021/09/07 01:06:48;;;;;;;;;;;;;;;16.38;81.63;102360.72;5051683;28;20381;-42
2021/09/07 01:09:14;;;;;;;;;;;;;;;16.38;81.58;102360.72;5051148;28;19982;-47
2021/09/07 01:11:41;;;;;;;;;;;;;;;16.40;81.72;102358.78;5065653;28;20417;-48
2021/09/07 01:14:08;;;;;;;;;;;;;;;16.42;81.52;102364.88;5050574;28;19940;-49
2021/09/07 01:16:35;;;;;;;;;;;;;;;16.41;82.13;102367.63;5051309;28;19977;-52
2021/09/07 01:19:02;;;;;;;;;;;;;;;16.41;82.00;102359.66;5051372;28;19929;-43
2021/09/07 01:21:29;;;;;;;;;;;;;;;16.41;81.97;102357.84;5050530;28;20349;-45
2021/09/07 01:23:56;;;;;;;;;;;;;;;16.45;81.94;102363.81;5050625;28;19971;-45
2021/09/07 01:26:22;;;;;;;;;;;;;;;16.44;81.51;102362.09;5050397;28;19976;-46
2021/09/07 01:28:49;;;;;;;;;;;;;;;16.43;81.52;102355.09;5049863;28;19931;-47
2021/09/07 01:31:16;;;;;;;;;;;;;;;16.43;82.15;102361.25;5050957;28;20005;-45
2021/09/07 01:33:47;;;;;;;;;;;;;;;16.48;82.02;102358.28;5050428;28;20376;-45
2021/09/07 01:36:16;;;;;;;;;;;;;;;16.48;81.88;102359.13;5064439;28;20291;-46
2021/09/07 01:38:43;;;;;;;;;;;;;;;16.53;81.57;102365.00;5050251;28;20399;-49
2021/09/07 01:41:10;;;;;;;;;;;;;;;16.54;81.48;102368.53;5050632;28;19929;-51
2021/09/07 01:43:36;;;;;;;;;;;;;;;16.54;81.33;102374.69;5049584;28;19929;-52
2021/09/07 01:46:03;;;;;;;;;;;;;;;16.54;81.32;102373.84;5049537;28;19939;-53
2021/09/07 01:48:30;;;;;;;;;;;;;;;16.54;81.18;102368.53;5065667;28;19956;-52
2021/09/07 01:50:57;;;;;;;;;;;;;;;16.54;81.16;102371.19;5050169;28;19932;-50
2021/09/07 01:53:24;;;;;;;;;;;;;;;16.54;80.70;102371.19;5065215;28;20474;-51
2021/09/07 01:55:50;;;;;;;;;;;;;;;16.56;80.58;102372.78;5065784;28;19929;-49
2021/09/07 01:58:17;;;;;;;;;;;;;;;16.62;79.79;102363.56;5049152;28;19924;-53
2021/09/07 02:00:44;;;;;;;;;;;;;;;16.62;79.84;102366.19;5049409;28;20011;-51
2021/09/07 02:03:10;;;;;;;;;;;;;;;16.57;80.28;102368.31;5049085;28;19925;-49
2021/09/07 02:05:37;;;;;;;;;;;;;;;16.58;80.20;102356.75;5050288;28;19933;-52
2021/09/07 02:08:04;;;;;;;;;;;;;;;16.59;80.37;102363.72;5050162;28;19928;-49
2021/09/07 02:10:31;;;;;;;;;;;;;;;16.56;80.83;102361.28;5049900;28;19929;-50
2021/09/07 02:12:57;;;;;;;;;;;;;;;16.54;81.22;102369.38;5064263;28;19975;-50
2021/09/07 02:15:24;;;;;;;;;;;;;;;16.55;80.82;102371.06;5048738;28;19925;-50
2021/09/07 02:17:50;;;;;;;;;;;;;;;16.54;81.16;102364.06;5050689;28;19925;-48
2021/09/07 02:20:17;;;;;;;;;;;;;;;16.55;81.51;102371.06;5049493;28;19925;-52
2021/09/07 02:22:44;;;;;;;;;;;;;;;16.56;81.47;102355.97;5049660;28;19932;-51
2021/09/07 02:25:11;;;;;;;;;;;;;;;16.56;81.14;102364.81;5050563;28;19933;-42
2021/09/07 02:27:37;;;;;;;;;;;;;;;16.58;80.69;102359.41;5048828;28;19936;-44
2021/09/07 02:30:05;;;;;;;;;;;;;;;16.60;81.03;102361.94;5048698;28;19986;-43
2021/09/07 02:32:32;;;;;;;;;;;;;;;16.62;80.53;102360.91;5065209;28;19928;-48
2021/09/07 02:34:58;;;;;;;;;;;;;;;16.60;80.99;102365.44;5050233;28;20402;-46
2021/09/07 02:37:25;;;;;;;;;;;;;;;16.61;80.75;102363.66;5049806;28;19924;-45
2021/09/07 02:39:52;;;;;;;;;;;;;;;16.59;81.24;102360.25;5049971;28;19925;-42
2021/09/07 02:42:18;;;;;;;;;;;;;;;16.62;81.31;102355.59;5048303;28;19933;-44
2021/09/07 02:44:45;;;;;;;;;;;;;;;16.62;81.31;102354.72;5048870;28;20395;-44
2021/09/07 02:47:12;;;;;;;;;;;;;;;16.58;81.28;102355.88;5052290;28;19925;-42
2021/09/07 02:49:38;;;;;;;;;;;;;;;16.62;81.38;102354.72;5068928;28;19936;-42
2021/09/07 02:52:05;;;;;;;;;;;;;;;16.62;81.06;102360.91;5053696;28;19928;-47
2021/09/07 02:54:31;;;;;;;;;;;;;;;16.63;81.96;102354.59;5053767;28;20027;-49
2021/09/07 02:56:58;;;;;;;;;;;;;;;16.65;82.06;102362.50;5052457;28;20716;-50
2021/09/07 02:59:25;;;;;;;;;;;;;;;16.63;82.22;102357.25;5052769;28;19932;-50
2021/09/07 03:01:52;;;;;;;;;;;;;;;16.61;82.21;102361.84;5053026;28;19925;-43
2021/09/07 03:04:19;;;;;;;;;;;;;;;16.64;82.18;102351.00;5053453;28;19925;-44
2021/09/07 03:06:48;;;;;;;;;;;;;;;16.65;82.46;102358.03;5053822;28;19959;-43
2021/09/07 03:09:15;;;;;;;;;;;;;;;16.66;82.15;102357.06;5053403;28;19925;-44
2021/09/07 03:11:41;;;;;;;;;;;;;;;16.68;82.23;102349.84;5068086;28;19929;-42
2021/09/07 03:14:08;;;;;;;;;;;;;;;16.66;82.47;102345.59;5052774;28;19931;-43
2021/09/07 03:16:35;;;;;;;;;;;;;;;16.63;82.03;102343.97;5053662;28;19990;-44
2021/09/07 03:19:02;;;;;;;;;;;;;;;16.61;81.95;102345.91;5052231;28;19925;-42
2021/09/07 03:21:28;;;;;;;;;;;;;;;16.68;81.58;102346.34;5053055;28;19964;-43
2021/09/07 03:23:55;;;;;;;;;;;;;;;16.65;81.95;102344.75;5053210;28;19925;-46
2021/09/07 03:26:21;;;;;;;;;;;;;;;16.60;81.90;102341.53;5052341;28;20392;-48
2021/09/07 03:28:48;;;;;;;;;;;;;;;16.63;82.27;102343.13;5051623;28;19925;-45
2021/09/07 03:31:15;;;;;;;;;;;;;;;16.62;82.19;102350.28;5067559;28;20359;-48
2021/09/07 03:33:41;;;;;;;;;;;;;;;16.55;82.60;102343.66;5053158;28;19931;-44
2021/09/07 03:36:08;;;;;;;;;;;;;;;16.57;82.52;102347.06;5053262;28;19932;-45
2021/09/07 03:38:35;;;;;;;;;;;;;;;16.54;82.69;102340.16;5052919;28;19925;-44
2021/09/07 03:41:01;;;;;;;;;;;;;;;16.55;82.59;102346.31;5053032;28;19925;-48
2021/09/07 03:43:28;;;;;;;;;;;;;;;16.56;82.62;102345.34;5051047;28;20387;-46
2021/09/07 03:45:55;;;;;;;;;;;;;;;16.50;83.25;102336.00;5053320;28;19932;-45
2021/09/07 03:48:21;;;;;;;;;;;;;;;16.49;82.79;102344.06;5052802;28;19925;-47
2021/09/07 03:50:48;;;;;;;;;;;;;;;16.51;82.40;102344.81;5052387;28;19925;-48
2021/09/07 03:53:14;;;;;;;;;;;;;;;16.51;82.13;102340.38;5052487;28;19925;-43
2021/09/07 03:55:41;;;;;;;;;;;;;;;16.47;82.35;102330.03;5052579;28;20372;-43
2021/09/07 03:58:08;;;;;;;;;;;;;;;16.46;82.18;102334.50;5065988;28;20411;-48
2021/09/07 04:00:34;;;;;;;;;;;;;;;16.50;82.36;102332.50;5052281;28;20384;-43
2021/09/07 04:03:01;;;;;;;;;;;;;;;16.41;82.94;102333.13;5052554;28;19931;-43
2021/09/07 04:05:28;;;;;;;;;;;;;;;16.37;83.13;102335.97;5051964;28;19925;-46
2021/09/07 04:07:55;;;;;;;;;;;;;;;16.37;83.23;102335.09;5052261;28;19947;-45
2021/09/07 04:10:21;;;;;;;;;;;;;;;16.29;83.17;102329.47;5052675;28;19932;-47
2021/09/07 04:12:48;;;;;;;;;;;;;;;16.29;83.38;102325.03;5050768;28;19936;-44
2021/09/07 04:15:15;;;;;;;;;;;;;;;16.24;83.88;102332.44;5052423;28;20447;-44
2021/09/07 04:17:41;;;;;;;;;;;;;;;16.24;83.45;102335.09;5068260;28;19925;-45
2021/09/07 04:20:09;;;;;;;;;;;;;;;16.22;83.44;102332.53;5052088;28;19967;-46
2021/09/07 04:22:36;;;;;;;;;;;;;;;16.15;83.55;102335.69;5050795;28;19925;-45
2021/09/07 04:25:04;;;;;;;;;;;;;;;16.20;83.17;102337.06;5052583;28;19924;-46
2021/09/07 04:27:31;;;;;;;;;;;;;;;16.10;83.66;102340.44;5050400;28;19933;-43
2021/09/07 04:29:58;;;;;;;;;;;;;;;16.02;83.92;102339.13;5050664;28;19952;-44
2021/09/07 04:32:24;;;;;;;;;;;;;;;16.01;83.81;102339.22;5052343;28;20454;-43
2021/09/07 04:34:51;;;;;;;;;;;;;;;15.98;84.02;102350.03;5051796;28;19982;-41
2021/09/07 04:37:18;;;;;;;;;;;;;;;15.99;83.53;102347.28;5051696;28;19932;-44
2021/09/07 04:39:49;;;;;;;;;;;;;;;15.97;83.61;102356.31;5052273;28;20582;-45
2021/09/07 04:42:16;;;;;;;;;;;;;;;15.94;83.48;102354.69;5049837;28;19940;-46
2021/09/07 04:44:43;;;;;;;;;;;;;;;15.98;83.45;102353.53;5052237;28;19936;-42
2021/09/07 04:47:10;;;;;;;;;;;;;;;15.93;83.88;102355.63;5050483;28;19928;-44
2021/09/07 04:49:37;;;;;;;;;;;;;;;15.89;84.26;102354.13;5051485;28;19933;-42
2021/09/07 04:52:04;;;;;;;;;;;;;;;15.86;84.06;102352.53;5051542;28;20402;-43
2021/09/07 04:54:30;;;;;;;;;;;;;;;15.80;84.21;102349.41;5050201;28;19951;-43
2021/09/07 04:56:57;;;;;;;;;;;;;;;15.82;84.03;102356.31;5065876;28;20398;-43
2021/09/07 04:59:23;;;;;;;;;;;;;;;15.76;84.09;102345.22;5050439;28;19929;-43
2021/09/07 05:01:50;;;;;;;;;;;;;;;15.75;84.17;102348.81;5051416;28;19924;-42
2021/09/07 05:04:17;;;;;;;;;;;;;;;15.69;84.45;102342.09;5050626;28;19936;-44
2021/09/07 05:06:44;;;;;;;;;;;;;;;15.65;84.18;102352.06;5066626;28;19932;-43
2021/09/07 05:09:10;;;;;;;;;;;;;;;15.68;84.59;102351.03;5066635;28;20391;-46
2021/09/07 05:11:37;;;;;;;;;;;;;;;15.62;84.93;102352.22;5048285;28;19979;-43
2021/09/07 05:14:06;;;;;;;;;;;;;;;15.60;85.28;102351.50;5051037;28;19925;-44
2021/09/07 05:16:32;;;;;;;;;;;;;;;15.57;84.96;102349.03;5051433;28;19979;-43
2021/09/07 05:18:59;;;;;;;;;;;;;;;15.66;84.59;102356.41;5050917;28;19925;-46
2021/09/07 05:21:26;;;;;;;;;;;;;;;15.62;85.17;102360.19;5051128;28;19925;-42
2021/09/07 05:23:52;;;;;;;;;;;;;;;15.59;85.51;102359.53;5051103;28;20364;-46
2021/09/07 05:26:19;;;;;;;;;;;;;;;15.65;85.38;102362.66;5050753;28;19931;-44
2021/09/07 05:28:46;;;;;;;;;;;;;;;15.61;85.87;102363.81;5050248;28;19974;-44
2021/09/07 05:31:14;;;;;;;;;;;;;;;15.57;86.04;102364.94;5050262;28;19936;-44
2021/09/07 05:33:42;;;;;;;;;;;;;;;15.55;86.13;102357.06;5050921;28;19925;-47
2021/09/07 05:36:08;;;;;;;;;;;;;;;15.61;86.21;102368.25;5050872;28;20334;-49
2021/09/07 05:38:35;;;;;;;;;;;;;;;15.58;86.00;102363.97;5050933;28;19925;-43
2021/09/07 05:41:01;;;;;;;;;;;;;;;15.63;86.42;102364.56;5050622;28;19990;-49
2021/09/07 05:43:28;;;;;;;;;;;;;;;15.67;86.64;102371.38;5049067;28;19925;-49
2021/09/07 05:45:55;;;;;;;;;;;;;;;15.67;86.89;102371.38;5050981;28;19924;-52
2021/09/07 05:48:21;;;;;;;;;;;;;;;15.68;86.91;102369.59;5050871;28;20283;-49
2021/09/07 05:50:48;;;;;;;;;;;;;;;15.76;86.69;102371.72;5050597;28;20016;-51
2021/09/07 05:53:15;;;;;;;;;;;;;;;15.72;86.78;102377.25;5049988;28;19956;-51
2021/09/07 05:55:41;;;;;;;;;;;;;;;15.75;87.03;102375.31;5050697;28;19925;-48
2021/09/07 05:58:08;;;;;;;;;;;;;;;15.75;86.98;102378.84;5049296;28;19928;-51
2021/09/07 06:00:35;;;;;;;;;;;;;;;15.75;86.93;102373.53;5050337;28;19925;-50
2021/09/07 06:03:08;;;;;;;;;;;;;;;15.83;87.52;102373.09;5050540;28;20024;-49
2021/09/07 06:05:35;;;;;;;;;;;;;;;15.82;86.95;102376.69;5049864;28;19925;-48
2021/09/07 06:08:02;;;;;;;;;;;;;;;15.86;86.96;102384.34;5065057;28;19924;-43
2021/09/07 06:10:29;;;;;;;;;;;;;;;15.91;86.85;102376.13;5049954;28;20402;-43
2021/09/07 06:12:56;;;;;;;;;;;;;;;15.90;86.74;102379.72;5033847;28;19925;-44
2021/09/07 06:15:23;;;;;;;;;;;;;;;15.92;86.74;102376.97;5049417;28;19928;-47
2021/09/07 06:17:49;;;;;;;;;;;;;;;15.99;86.75;102373.81;5050199;28;19947;-45
2021/09/07 06:20:16;;;;;;;;;;;;;;;16.00;86.93;102377.31;5064819;28;20288;-45
2021/09/07 06:22:43;;;;;;;;;;;;;;;16.08;86.93;102379.50;5049795;28;19948;-42
2021/09/07 06:25:10;;;;;;;;;;;;;;;16.10;86.53;102382.88;5050319;28;19929;-46
2021/09/07 06:27:37;;;;;;;;;;;;;;;16.17;86.92;102381.53;5047948;28;21210;-45
2021/09/07 06:30:04;;;;;;;;;;;;;;;16.21;87.27;102372.41;5049937;28;20028;-50
2021/09/07 06:32:33;;;;;;;;;;;;;;;16.29;86.77;102379.88;5049363;28;20429;-52
2021/09/07 06:35:00;;;;;;;;;;;;;;;16.39;87.10;102368.56;5049554;28;19925;-44
2021/09/07 06:37:27;;;;;;;;;;;;;;;16.51;86.63;102379.31;5049362;28;19983;-46
2021/09/07 06:39:57;;;;;;;;;;;;;;;16.63;86.29;102377.66;5050202;28;20434;-46
2021/09/07 06:42:24;;;;;;;;;;;;;;;16.75;86.31;102366.22;5046966;28;20319;-53
2021/09/07 06:44:50;;;;;;;;;;;;;;;16.90;83.76;102370.50;5049863;28;19925;-51
2021/09/07 06:47:17;;;;;;;;;;;;;;;17.03;82.74;102370.53;5049696;28;19929;-52
2021/09/07 06:49:44;;;;;;;;;;;;;;;17.14;82.16;102371.59;5049374;28;19929;-51
2021/09/07 06:52:11;;;;;;;;;;;;;;;17.27;80.67;102374.28;5049943;28;20024;-51
2021/09/07 06:54:37;;;;;;;;;;;;;;;17.36;80.30;102379.78;5049866;28;19937;-52
2021/09/07 06:57:04;;;;;;;;;;;;;;;17.48;79.67;102375.44;5048336;28;19925;-52
2021/09/07 06:59:31;;;;;;;;;;;;;;;17.61;79.74;102379.88;5049582;28;20874;-53
2021/09/07 07:01:57;;;;;;;;;;;;;;;17.72;78.55;102367.53;5050558;28;19951;-52
2021/09/07 07:04:24;;;;;;;;;;;;;;;17.81;77.44;102368.66;5047921;28;19925;-49
2021/09/07 07:06:52;;;;;;;;;;;;;;;17.90;77.31;102369.78;5049839;28;19971;-52
2021/09/07 07:09:18;;;;;;;;;;;;;;;17.99;77.10;102369.16;5049506;28;19924;-43
2021/09/07 07:11:45;;;;;;;;;;;;;;;18.16;76.71;102372.41;5048454;28;20005;-45
2021/09/07 07:14:11;;;;;;;;;;;;;;;18.23;76.13;102373.69;5048786;28;19924;-45
2021/09/07 07:16:38;;;;;;;;;;;;;;;18.32;76.48;102372.13;5049783;28;19928;-45
2021/09/07 07:19:05;;;;;;;;;;;;;;;18.40;76.23;102375.91;5064695;28;20032;-44
2021/09/07 07:21:32;;;;;;;;;;;;;;;18.58;74.30;102378.16;5049702;28;19952;-46
2021/09/07 07:23:58;;;;;;;;;;;;;;;18.67;74.93;102377.47;5049533;28;20058;-47
2021/09/07 07:26:25;;;;;;;;;;;;;;;18.75;73.24;102368.91;5047612;28;20002;-45
2021/09/07 07:28:51;;;;;;;;;;;;;;;18.86;73.50;102373.44;5048492;28;19940;-46
2021/09/07 07:31:18;;;;;;;;;;;;;;;19.01;73.04;102379.44;5048999;28;20019;-48
2021/09/07 07:33:45;;;;;;;;;;;;;;;19.11;72.80;102380.41;5049913;28;20442;-44
2021/09/07 07:36:11;;;;;;;;;;;;;;;19.26;69.86;102381.03;5052782;28;19928;-50
2021/09/07 07:38:38;;;;;;;;;;;;;;;19.41;68.35;102376.31;5052462;28;20465;-46
2021/09/07 07:41:05;;;;;;;;;;;;;;;19.52;67.88;102384.31;5052883;28;19932;-49
2021/09/07 07:43:34;;;;;;;;;;;;;;;19.52;68.11;102386.13;5066293;28;19928;-51
2021/09/07 07:46:01;;;;;;;;;;;;;;;19.57;68.45;102384.78;5052817;28;20331;-50
2021/09/07 07:48:28;;;;;;;;;;;;;;;19.67;66.70;102390.25;5068054;28;19928;-48
2021/09/07 07:50:54;;;;;;;;;;;;;;;19.79;68.16;102399.09;5052608;28;19974;-48
2021/09/07 07:53:21;;;;;;;;;;;;;;;19.86;66.51;102394.16;5052126;28;19948;-49
2021/09/07 07:55:48;;;;;;;;;;;;;;;20.15;67.16;102390.94;5051376;28;19929;-49
2021/09/07 07:58:23;;;;;;;;;;;;;;;20.56;66.84;102403.56;5051146;28;19932;-48
2021/09/07 08:00:50;;;;;;;;;;;;;;;20.71;64.79;102393.44;5053589;28;19925;-50
2021/09/07 08:03:17;;;;;;;;;;;;;;;20.92;65.40;102390.75;5068998;28;19929;-50
2021/09/07 08:05:44;;;;;;;;;;;;;;;21.10;64.83;102398.19;5052411;28;19925;-50
2021/09/07 08:08:11;;;;;;;;;;;;;;;21.41;65.55;102396.38;5052184;28;19989;-50
2021/09/07 08:10:39;;;;;;;;;;;;;;;21.62;63.16;102390.16;5052520;28;19976;-51
2021/09/07 08:13:05;;;;;;;;;;;;;;;21.91;62.51;102394.72;5050759;28;20269;-51
2021/09/07 08:15:32;;;;;;;;;;;;;;;22.27;62.19;102389.75;5052404;28;20366;-52
2021/09/07 08:17:59;;;;;;;;;;;;;;;22.59;62.35;102396.66;5052420;28;19975;-52
2021/09/07 08:20:27;;;;;;;;;;;;;;;22.69;58.29;102388.66;5052326;28;20383;-52
2021/09/07 08:22:53;;;;;;;;;;;;;;;22.92;58.57;102398.06;5050763;28;20015;-48
2021/09/07 08:25:20;;;;;;;;;;;;;;;23.04;57.47;102398.75;5067162;28;20580;-52
2021/09/07 08:27:46;;;;;;;;;;;;;;;23.04;58.15;102408.63;5050688;28;19925;-51
2021/09/07 08:30:15;;;;;;;;;;;;;;;23.01;57.28;102400.88;5051800;28;19925;-53
2021/09/07 08:32:41;;;;;;;;;;;;;;;22.98;58.17;102403.84;5052337;28;19931;-52
2021/09/07 08:35:09;;;;;;;;;;;;;;;23.18;56.68;102408.19;5051298;28;20331;-53
2021/09/07 08:37:36;;;;;;;;;;;;;;;23.19;53.89;102400.97;5051832;28;19959;-50
2021/09/07 08:40:04;;;;;;;;;;;;;;;23.18;55.40;102404.66;5052300;28;19924;-52
2021/09/07 08:42:33;;;;;;;;;;;;;;;23.52;53.85;102402.28;5048513;28;19925;-51
2021/09/07 08:44:59;;;;;;;;;;;;;;;23.56;55.07;102408.19;5067091;28;19956;-51
2021/09/07 08:47:26;;;;;;;;;;;;;;;23.75;54.42;102409.94;5050301;28;19932;-53
2021/09/07 08:49:53;;;;;;;;;;;;;;;23.90;54.90;102402.25;5051886;28;19936;-52
2021/09/07 08:52:22;;;;;;;;;;;;;;;24.07;54.24;102406.81;5051254;28;19925;-43
2021/09/07 08:54:49;;;;;;;;;;;;;;;24.31;55.26;102408.06;5051414;28;19929;-44
2021/09/07 08:57:15;;;;;;;;;;;;;;;24.38;53.75;102403.78;5048640;28;19924;-45
2021/09/07 08:59:52;;;;;;;;;;;;;;;24.54;53.69;102402.22;5051541;28;19936;-43
2021/09/07 09:02:20;;;;;;;;;;;;;;;24.75;52.09;102400.06;5066653;28;19925;-47
2021/09/07 09:04:48;;;;;;;;;;;;;;;25.06;53.51;102401.44;5050100;28;19971;-51
2021/09/07 09:07:21;;;;;;;;;;;;;;;25.44;53.20;102400.19;5051080;28;19931;-52
2021/09/07 09:09:51;;;;;;;;;;;;;;;25.67;52.27;102391.53;5051108;28;19939;-50
2021/09/07 09:12:27;;;;;;;;;;;;;;;25.68;50.81;102393.22;5048311;28;19933;-52
2021/09/07 09:14:54;;;;;;;;;;;;;;;25.72;48.66;102393.75;5051261;28;20281;-52
2021/09/07 09:17:22;;;;;;;;;;;;;;;25.70;46.33;102393.91;5050964;28;19932;-52
2021/09/07 09:19:51;;;;;;;;;;;;;;;25.86;46.43;102392.28;5050918;28;19933;-51
2021/09/07 09:22:19;;;;;;;;;;;;;;;26.00;46.51;102394.34;5052430;28;20352;-52
2021/09/07 09:24:45;;;;;;;;;;;;;;;26.04;45.67;102393.03;5067264;28;19932;-50
2021/09/07 09:27:12;;;;;;;;;;;;;;;26.30;43.72;102387.50;5049167;28;20024;-49
2021/09/07 09:29:40;;;;;;;;;;;;;;;26.69;43.70;102387.84;5050576;28;20665;-53
2021/09/07 09:32:09;;;;;;;;;;;;;;;26.65;43.54;102393.56;5050870;28;20429;-51
2021/09/07 09:34:37;;;;;;;;;;;;;;;27.00;42.48;102385.28;5065624;28;19931;-52
2021/09/07 09:37:04;;;;;;;;;;;;;;;26.83;40.29;102387.16;5049548;28;19924;-49
2021/09/07 09:39:38;;;;;;;;;;;;;;;26.78;41.45;102390.38;5050633;28;19933;-48
2021/09/07 09:42:05;;;;;;;;;;;;;;;26.77;41.34;102390.56;5048825;28;19971;-50
2021/09/07 09:44:31;;;;;;;;;;;;;;;26.97;41.55;102389.16;5065666;28;19929;-51
2021/09/07 09:46:59;;;;;;;;;;;;;;;27.18;40.99;102382.38;5050639;28;19967;-53
2021/09/07 09:49:27;;;;;;;;;;;;;;;27.39;39.87;102379.13;5065297;28;19982;-51
2021/09/07 09:52:04;;;;;;;;;;;;;;;27.49;40.51;102381.63;5065909;28;20348;-49
2021/09/07 09:54:32;;;;;;;;;;;;;;;27.63;38.76;102378.16;5050265;28;19936;-51
2021/09/07 09:56:59;;;;;;;;;;;;;;;27.78;39.19;102374.72;5048810;28;19928;-47
2021/09/07 09:59:28;;;;;;;;;;;;;;;27.80;37.96;102378.06;5049864;28;20708;-48
2021/09/07 10:01:56;;;;;;;;;;;;;;;28.23;38.37;102380.38;5050551;28;19925;-47
2021/09/07 10:04:23;;;;;;;;;;;;;;;28.06;39.47;102374.22;5048361;28;20030;-45
2021/09/07 10:06:51;;;;;;;;;;;;;;;28.31;39.08;102383.00;5050358;28;19928;-46
2021/09/07 10:09:18;;;;;;;;;;;;;;;28.45;38.83;102368.66;5065468;28;19925;-49
2021/09/07 10:11:54;;;;;;;;;;;;;;;28.41;38.65;102371.94;5048127;28;19936;-48
2021/09/07 10:14:21;;;;;;;;;;;;;;;28.68;38.06;102370.53;5064721;28;19931;-49
2021/09/07 10:16:56;;;;;;;;;;;;;;;28.72;38.01;102369.13;5065931;28;19963;-44
2021/09/07 10:19:47;;;;;;;;;;;;;;;29.12;36.61;102360.75;5049923;28;19939;-45
2021/09/07 10:25:47;;;;;;;;;;;;;;;29.12;37.12;102356.19;5049945;28;19925;-46
2021/09/07 10:28:34;;;;;;;;;;;;;;;28.96;37.09;102357.22;5048727;28;19924;-44
2021/09/07 10:31:21;;;;;;;;;;;;;;;29.28;37.39;102351.63;5049381;28;20387;-47
2021/09/07 10:33:58;;;;;;;;;;;;;;;29.38;37.14;102356.75;5049707;28;19931;-47
2021/09/07 10:36:26;;;;;;;;;;;;;;;29.48;35.25;102351.91;5049849;28;19931;-47
2021/09/07 10:38:53;;;;;;;;;;;;;;;29.61;36.02;102357.44;5065196;28;19982;-44
2021/09/07 10:41:47;;;;;;;;;;;;;;;29.66;35.06;102352.31;5049220;28;19925;-44
2021/09/07 10:44:16;;;;;;;;;;;;;;;29.73;34.99;102354.25;5048542;28;19924;-45
2021/09/07 10:46:55;;;;;;;;;;;;;;;29.97;34.58;102345.78;5050236;28;19929;-49
2021/09/07 10:49:25;;;;;;;;;;;;;;;30.04;34.97;102345.00;5048009;28;19924;-44
2021/09/07 10:52:04;;;;;;;;;;;;;;;29.95;35.30;102347.00;5049931;28;19929;-44
2021/09/07 10:54:31;;;;;;;;;;;;;;;29.75;34.79;102335.91;5049134;28;19928;-43
2021/09/07 10:56:59;;;;;;;;;;;;;;;29.74;35.83;102340.50;5048545;28;19929;-43
2021/09/07 10:59:46;;;;;;;;;;;;;;;29.96;34.92;102335.97;5049124;28;19928;-44
2021/09/07 11:02:31;;;;;;;;;;;;;;;30.30;35.20;102339.81;5049252;28;20299;-47
2021/09/07 11:05:36;;;;;;;;;;;;;;;29.99;34.31;102326.59;5048884;28;20023;-45
2021/09/07 11:08:04;;;;;;;;;;;;;;;30.01;35.47;102330.81;5050446;28;20678;-44
2021/09/07 11:10:34;;;;;;;;;;;;;;;29.98;34.95;102327.63;5052992;28;20032;-46
2021/09/07 11:13:02;;;;;;;;;;;;;;;30.30;34.46;102331.69;5050137;28;19925;-44
2021/09/07 11:15:31;;;;;;;;;;;;;;;30.21;33.72;102324.72;5052714;28;20395;-46
2021/09/07 11:17:59;;;;;;;;;;;;;;;30.87;33.06;102314.53;5068600;28;19951;-48
2021/09/07 11:20:30;;;;;;;;;;;;;;;30.82;32.69;102320.59;5052529;28;19928;-43
2021/09/07 11:22:59;;;;;;;;;;;;;;;30.60;33.91;102308.97;5067565;28;19932;-47
2021/09/07 11:25:26;;;;;;;;;;;;;;;30.79;34.55;102316.41;5052832;28;19925;-47
2021/09/07 11:27:58;;;;;;;;;;;;;;;31.27;34.00;102314.78;5051335;28;19937;-47
2021/09/07 11:30:26;;;;;;;;;;;;;;;31.55;34.09;102302.94;5052354;28;19931;-46
2021/09/07 11:33:03;;;;;;;;;;;;;;;31.58;33.37;102307.94;5053578;28;19925;-48
2021/09/07 11:35:31;;;;;;;;;;;;;;;30.97;32.90;102304.16;5052515;28;19924;-48
2021/09/07 11:37:58;;;;;;;;;;;;;;;31.08;32.27;102303.63;5052927;28;19931;-48
2021/09/07 11:40:25;;;;;;;;;;;;;;;31.05;32.67;102308.63;5053005;28;20020;-50
2021/09/07 11:42:52;;;;;;;;;;;;;;;30.82;33.13;102309.72;5050028;28;20413;-47
2021/09/07 11:45:22;;;;;;;;;;;;;;;31.47;33.79;102304.81;5064691;28;20018;-45
2021/09/07 11:47:49;;;;;;;;;;;;;;;31.73;31.82;102303.22;5067723;28;19929;-47
2021/09/07 11:50:16;;;;;;;;;;;;;;;31.77;32.27;102296.34;5067115;28;19928;-47
2021/09/07 11:52:46;;;;;;;;;;;;;;;31.22;32.43;102298.25;5067030;28;20445;-45
2021/09/07 11:55:32;;;;;;;;;;;;;;;31.56;32.42;102291.84;5067573;28;19925;-46
2021/09/07 11:57:59;;;;;;;;;;;;;;;31.80;32.03;102304.06;5050854;28;20023;-50
2021/09/07 12:00:26;;;;;;;;;;;;;;;32.23;30.91;102299.28;5051518;28;20419;-53
2021/09/07 12:03:22;;;;;;;;;;;;;;;32.14;31.63;102298.66;5052476;28;19925;-52
2021/09/07 12:05:56;;;;;;;;;;;;;;;32.53;29.94;102299.66;5051033;28;19991;-49
2021/09/07 12:08:55;;;;;;;;;;;;;;;32.69;30.29;102304.66;5050314;28;19971;-52
2021/09/07 12:11:22;;;;;;;;;;;;;;;32.79;30.58;102298.81;5049522;28;20488;-53
2021/09/07 12:14:02;;;;;;;;;;;;;;;33.01;29.88;102293.09;5050536;28;20725;-50
2021/09/07 12:16:29;;;;;;;;;;;;;;;32.61;29.75;102295.91;5051652;28;20015;-53
2021/09/07 12:18:55;;;;;;;;;;;;;;;32.83;29.90;102294.63;5051339;28;19955;-54
2021/09/07 12:21:23;;;;;;;;;;;;;;;32.92;30.03;102291.66;5051032;28;19928;-52
2021/09/07 12:23:51;;;;;;;;;;;;;;;32.58;29.89;102290.88;5050664;28;19925;-53
2021/09/07 12:26:18;;;;;;;;;;;;;;;32.75;29.73;102297.56;5066446;28;19932;-53
2021/09/07 12:28:44;;;;;;;;;;;;;;;33.22;29.27;102294.66;5065229;28;20388;-54
2021/09/07 12:31:11;;;;;;;;;;;;;;;33.52;28.51;102296.84;5050998;28;19952;-53
2021/09/07 12:33:42;;;;;;;;;;;;;;;33.62;28.22;102285.44;5051358;28;20012;-51
2021/09/07 12:36:09;;;;;;;;;;;;;;;33.38;28.67;102292.50;5050998;28;20377;-53
2021/09/07 12:38:36;;;;;;;;;;;;;;;33.25;29.25;102286.06;5050816;28;20000;-52
2021/09/07 12:41:13;;;;;;;;;;;;;;;33.59;28.48;102280.44;5051550;28;20322;-49
2021/09/07 12:43:42;;;;;;;;;;;;;;;33.75;28.29;102279.06;5049295;28;19994;-51